Terminal Aerodrome Forecast
Issued by NWS Sioux Falls, SD

Home | Current Version | Previous Version | Text Only | Print | Product List | Glossary On
Versions: 1 2 3 4 5 6 7 8 9 10 11 12 13 14 15 16 17 18 19 20 21 22 23 24
124
FTUS43 KFSD 140135 AAA
TAFFSD
TAF AMD
KFSD 140135Z 1402/1424 15016KT 2SM -SN OVC050
     FM140300 15018G26KT 3SM -SN BLSN OVC045
     FM140900 16016G25KT 1SM -SN BLSN OVC020
     FM141100 15014G21KT 3SM -SN OVC025
     FM141400 15008KT P6SM OVC020
     FM141800 21006KT P6SM OVC025
     FM142100 25008KT P6SM BKN025=

USA.gov is the U.S. government's official web portal to all federal, state and local government web resources and services.